createdAt,value
2023-12-02T00:00:45.585Z,13.32
2023-12-02T00:03:12.238Z,13.25
2023-12-02T00:05:38.959Z,12.32
2023-12-02T00:08:05.605Z,13.10
2023-12-02T00:10:32.139Z,13.55
2023-12-02T00:12:58.738Z,11.40
2023-12-02T00:15:25.318Z,13.55
2023-12-02T00:17:52.238Z,11.38
2023-12-02T00:20:18.939Z,11.25
2023-12-02T00:22:45.533Z,12.25
2023-12-02T00:25:12.076Z,13.80
2023-12-02T00:27:38.595Z,12.18
2023-12-02T00:30:06.212Z,12.23
2023-12-02T00:32:32.856Z,11.65
2023-12-02T00:34:59.427Z,12.00
2023-12-02T00:37:25.979Z,12.95
2023-12-02T00:39:52.630Z,11.13
2023-12-02T00:42:19.283Z,10.15
2023-12-02T00:44:45.937Z,11.07
2023-12-02T00:47:12.503Z,10.73
2023-12-02T00:49:39.241Z,9.98
2023-12-02T00:52:05.952Z,10.82
2023-12-02T00:54:35.278Z,10.65
2023-12-02T00:57:02.177Z,10.88
2023-12-02T00:59:28.784Z,11.27
2023-12-02T01:01:55.610Z,10.70
2023-12-02T01:04:22.306Z,11.80
2023-12-02T01:06:48.925Z,10.75
2023-12-02T01:09:15.497Z,11.00
2023-12-02T01:11:42.096Z,12.07
2023-12-02T01:14:08.685Z,9.93
2023-12-02T01:16:35.266Z,11.57
2023-12-02T01:19:01.944Z,11.52
2023-12-02T01:21:28.564Z,12.30
2023-12-02T01:23:55.204Z,11.77
2023-12-02T01:26:21.952Z,12.13
2023-12-02T01:28:48.493Z,10.95
2023-12-02T01:31:15.058Z,12.48
2023-12-02T01:33:41.712Z,10.15
2023-12-02T01:36:12.893Z,10.13
2023-12-02T01:38:39.489Z,10.10
2023-12-02T01:41:06.333Z,10.90
2023-12-02T01:43:32.981Z,10.60
2023-12-02T01:45:59.598Z,10.65
2023-12-02T01:48:30.023Z,10.70
2023-12-02T01:50:57.913Z,9.63
2023-12-02T01:53:24.811Z,11.65
2023-12-02T01:55:52.172Z,10.70
2023-12-02T01:58:19.115Z,11.75
2023-12-02T02:00:45.757Z,10.07
2023-12-02T02:03:12.409Z,11.63
2023-12-02T02:05:39.369Z,10.57
2023-12-02T02:08:06.006Z,11.07
2023-12-02T02:10:32.539Z,10.18
2023-12-02T02:12:59.064Z,11.05
2023-12-02T02:15:25.664Z,11.40
2023-12-02T02:17:52.246Z,10.57
2023-12-02T02:20:18.832Z,10.80
2023-12-02T02:22:45.406Z,10.77
2023-12-02T02:25:11.970Z,12.45
2023-12-02T02:27:38.554Z,10.38
2023-12-02T02:30:06.406Z,10.77
2023-12-02T02:32:32.984Z,10.07
2023-12-02T02:34:59.609Z,10.80
2023-12-02T02:37:26.155Z,9.93
2023-12-02T02:39:52.682Z,11.00
2023-12-02T02:42:19.381Z,10.90
2023-12-02T02:44:45.878Z,11.80
2023-12-02T02:47:12.903Z,11.55
2023-12-02T02:49:39.452Z,11.02
2023-12-02T02:52:06.088Z,13.40
2023-12-02T02:54:32.722Z,12.05
2023-12-02T02:56:59.443Z,11.68
2023-12-02T02:59:25.973Z,9.93
2023-12-02T03:01:52.521Z,11.10
2023-12-02T03:04:19.306Z,11.13
2023-12-02T03:06:45.948Z,10.20
2023-12-02T03:09:13.107Z,10.82
2023-12-02T03:11:39.766Z,10.65
2023-12-02T03:14:07.143Z,12.52
2023-12-02T03:16:34.189Z,11.48
2023-12-02T03:19:01.941Z,12.15
2023-12-02T03:21:28.736Z,12.23
2023-12-02T03:23:55.328Z,12.35
2023-12-02T03:26:24.272Z,13.15
2023-12-02T03:28:50.818Z,12.10
2023-12-02T03:31:17.346Z,12.32
2023-12-02T03:33:44.024Z,11.48
2023-12-02T03:36:11.117Z,12.55
2023-12-02T03:38:38.234Z,14.00
2023-12-02T03:41:05.594Z,13.30
2023-12-02T03:43:33.781Z,12.63
2023-12-02T03:46:03.082Z,12.07
2023-12-02T03:48:30.057Z,13.20
2023-12-02T03:50:56.948Z,13.40
2023-12-02T03:53:23.574Z,12.02
2023-12-02T03:55:50.181Z,14.55
2023-12-02T03:58:16.710Z,15.98
2023-12-02T04:00:43.286Z,13.38
2023-12-02T04:03:09.863Z,13.35
2023-12-02T04:05:36.416Z,11.82
2023-12-02T04:08:03.225Z,12.52
2023-12-02T04:10:29.849Z,13.55
2023-12-02T04:12:56.408Z,12.95
2023-12-02T04:15:22.990Z,13.52
2023-12-02T04:17:49.617Z,13.68
2023-12-02T04:20:16.542Z,12.68
2023-12-02T04:22:43.392Z,12.48
2023-12-02T04:25:09.932Z,12.63
2023-12-02T04:27:37.216Z,12.35
2023-12-02T04:30:05.306Z,12.43
2023-12-02T04:32:31.960Z,13.23
2023-12-02T04:34:58.583Z,11.52
2023-12-02T04:37:25.173Z,12.48
2023-12-02T04:39:53.514Z,11.95
2023-12-02T04:42:20.185Z,11.85
2023-12-02T04:44:46.965Z,12.15
2023-12-02T04:47:13.610Z,11.95
2023-12-02T04:49:41.563Z,13.00
2023-12-02T04:52:08.170Z,12.07
2023-12-02T04:54:35.356Z,12.32
2023-12-02T04:57:02.479Z,11.93
2023-12-02T04:59:28.988Z,11.70
2023-12-02T05:01:56.458Z,10.95
2023-12-02T05:04:23.015Z,10.80
2023-12-02T05:06:51.730Z,10.40
2023-12-02T05:09:18.328Z,8.45
2023-12-02T05:11:44.857Z,9.73
2023-12-02T05:14:11.472Z,9.35
2023-12-02T05:16:42.489Z,10.02
2023-12-02T05:19:09.113Z,11.27
2023-12-02T05:21:38.465Z,9.48
2023-12-02T05:24:05.444Z,9.50
2023-12-02T05:26:32.879Z,10.65
2023-12-02T05:29:01.901Z,9.63
2023-12-02T05:31:28.556Z,11.73
2023-12-02T05:33:55.309Z,10.55
2023-12-02T05:36:21.977Z,11.43
2023-12-02T05:38:48.529Z,10.80
2023-12-02T05:41:15.025Z,10.85
2023-12-02T05:43:41.519Z,11.23
2023-12-02T05:46:08.572Z,10.35
2023-12-02T05:48:35.202Z,9.57
2023-12-02T05:51:04.401Z,10.23
2023-12-02T05:53:32.251Z,9.15
2023-12-02T05:55:58.799Z,9.73
2023-12-02T05:58:25.978Z,9.20
2023-12-02T06:00:52.510Z,7.18
2023-12-02T06:03:19.152Z,7.28
2023-12-02T06:05:45.734Z,6.45
2023-12-02T06:08:12.387Z,5.82
2023-12-02T06:10:39.288Z,6.05
2023-12-02T06:13:05.797Z,6.05
2023-12-02T06:15:32.503Z,6.50
2023-12-02T06:17:59.291Z,6.47
2023-12-02T06:20:25.933Z,6.25
2023-12-02T06:22:52.795Z,6.80
2023-12-02T06:25:19.339Z,6.50
2023-12-02T06:27:46.608Z,7.25
2023-12-02T06:30:18.993Z,6.50
2023-12-02T06:32:45.827Z,6.28
2023-12-02T06:35:13.331Z,6.93
2023-12-02T06:37:39.953Z,6.65
2023-12-02T06:40:07.241Z,6.55
2023-12-02T06:42:33.978Z,7.00
2023-12-02T06:45:00.653Z,6.70
2023-12-02T06:47:27.230Z,6.60
2023-12-02T06:49:53.865Z,7.15
2023-12-02T06:52:20.437Z,7.53
2023-12-02T06:55:31.224Z,7.70
2023-12-02T06:57:33.699Z,7.13
2023-12-02T07:00:00.427Z,7.55
2023-12-02T07:02:27.591Z,7.70
2023-12-02T07:04:54.175Z,7.55
2023-12-02T07:07:20.666Z,7.35
2023-12-02T07:09:47.177Z,7.47
2023-12-02T07:12:13.875Z,7.55
2023-12-02T07:14:40.398Z,7.10
2023-12-02T07:17:06.948Z,8.27
2023-12-02T07:19:33.637Z,8.43
2023-12-02T07:22:00.226Z,8.35
2023-12-02T07:24:26.838Z,7.68
2023-12-02T07:26:53.633Z,7.68
2023-12-02T07:29:20.136Z,6.93
2023-12-02T07:31:46.816Z,7.40
2023-12-02T07:34:13.438Z,7.43
2023-12-02T07:36:39.970Z,9.95
2023-12-02T07:39:06.602Z,11.00
2023-12-02T07:41:33.205Z,8.40
2023-12-02T07:43:59.754Z,6.03
2023-12-02T07:46:27.812Z,7.20
2023-12-02T07:48:55.038Z,8.27
2023-12-02T07:51:21.616Z,6.65
2023-12-02T07:53:48.565Z,7.15
2023-12-02T07:56:17.942Z,7.50
2023-12-02T07:58:44.486Z,7.65
2023-12-02T08:01:11.769Z,8.07
2023-12-02T08:03:38.350Z,7.07
2023-12-02T08:06:05.699Z,7.68
2023-12-02T08:08:32.256Z,7.00
2023-12-02T08:10:58.898Z,7.95
2023-12-02T08:13:25.659Z,9.15
2023-12-02T08:15:52.279Z,7.53
2023-12-02T08:18:19.874Z,6.63
2023-12-02T08:20:47.841Z,6.70
2023-12-02T08:23:14.465Z,4.43
2023-12-02T08:25:41.215Z,5.30
2023-12-02T08:28:07.743Z,5.82
2023-12-02T08:30:34.318Z,6.35
2023-12-02T08:33:00.889Z,6.22
2023-12-02T08:35:27.465Z,6.30
2023-12-02T08:37:54.018Z,7.00
2023-12-02T08:40:21.108Z,9.15
2023-12-02T08:42:47.653Z,8.02
2023-12-02T08:45:14.204Z,7.15
2023-12-02T08:47:41.661Z,8.07
2023-12-02T08:50:08.620Z,8.43
2023-12-02T08:52:35.285Z,8.93
2023-12-02T08:55:01.856Z,10.60
2023-12-02T08:57:28.380Z,9.50
2023-12-02T08:59:55.387Z,10.18
2023-12-02T09:02:22.095Z,10.23
2023-12-02T09:04:48.744Z,9.05
2023-12-02T09:07:15.345Z,9.27
2023-12-02T09:09:43.349Z,9.90
2023-12-02T09:12:09.988Z,10.43
2023-12-02T09:14:36.614Z,10.65
2023-12-02T09:17:04.811Z,12.95
2023-12-02T09:19:31.383Z,11.52
2023-12-02T09:21:58.022Z,11.73
2023-12-02T09:24:41.831Z,11.65
2023-12-02T09:27:08.875Z,12.25
2023-12-02T09:29:42.189Z,10.70
2023-12-02T09:32:19.711Z,10.85
2023-12-02T09:35:02.243Z,11.80
2023-12-02T09:37:53.039Z,10.82
2023-12-02T09:40:22.659Z,11.60
2023-12-02T09:42:56.424Z,11.13
2023-12-02T09:45:26.397Z,12.02
2023-12-02T09:48:06.497Z,11.98
2023-12-02T09:50:52.979Z,12.02
2023-12-02T09:53:28.593Z,11.52
2023-12-02T09:56:02.296Z,11.38
2023-12-02T09:58:43.789Z,10.75
2023-12-02T10:04:16.322Z,10.60
2023-12-02T10:06:57.430Z,12.13
2023-12-02T10:10:01.384Z,11.55
2023-12-02T10:12:49.606Z,10.55
2023-12-02T10:15:19.969Z,11.98
2023-12-02T10:18:09.619Z,12.18
2023-12-02T10:20:39.570Z,11.85
2023-12-02T10:23:32.456Z,11.52
2023-12-02T10:26:25.267Z,10.48
2023-12-02T10:29:01.139Z,12.60
2023-12-02T10:31:32.162Z,10.57
2023-12-02T10:34:01.712Z,12.10
2023-12-02T10:36:29.813Z,11.90
2023-12-02T10:39:14.731Z,12.48
2023-12-02T10:41:49.774Z,10.15
2023-12-02T10:44:20.853Z,9.02
2023-12-02T10:46:49.923Z,7.70
2023-12-02T10:49:18.336Z,9.15
2023-12-02T10:52:40.363Z,8.90
2023-12-02T10:54:40.458Z,7.87
2023-12-02T10:57:08.972Z,9.63
2023-12-02T10:59:50.842Z,8.50
2023-12-02T11:02:40.051Z,8.45
2023-12-02T11:05:19.831Z,9.73
2023-12-02T11:07:50.674Z,9.60
2023-12-02T11:10:22.299Z,8.60
2023-12-02T11:12:53.699Z,8.68
2023-12-02T11:15:24.191Z,8.65
2023-12-02T11:20:36.430Z,9.95
2023-12-02T11:23:22.711Z,9.63
2023-12-02T11:26:26.980Z,9.40
2023-12-02T11:29:18.800Z,10.88
2023-12-02T11:32:07.277Z,9.50
2023-12-02T11:34:51.323Z,9.77
2023-12-02T11:37:33.249Z,9.77
2023-12-02T11:40:47.876Z,10.25
2023-12-02T11:43:40.663Z,10.98
2023-12-02T11:46:15.845Z,9.75
2023-12-02T11:49:00.380Z,10.90
2023-12-02T11:51:41.741Z,11.10
2023-12-02T11:54:32.046Z,11.57
2023-12-02T11:57:11.848Z,10.32
2023-12-02T11:59:58.600Z,10.18
2023-12-02T12:02:51.935Z,11.63
2023-12-02T12:05:38.422Z,11.52
2023-12-02T12:08:22.351Z,11.65
2023-12-02T12:10:53.395Z,10.23
2023-12-02T12:13:21.530Z,11.82
2023-12-02T12:15:48.335Z,11.80
2023-12-02T12:18:17.029Z,9.85
2023-12-02T12:20:45.765Z,11.52
2023-12-02T12:23:12.890Z,11.10
2023-12-02T12:25:39.432Z,14.10
2023-12-02T12:28:06.913Z,13.73
2023-12-02T12:30:44.568Z,14.05
2023-12-02T12:33:13.893Z,14.77
2023-12-02T12:35:40.508Z,16.52
2023-12-02T12:38:11.025Z,13.73
2023-12-02T12:40:40.394Z,14.30
2023-12-02T12:43:14.141Z,20.92
2023-12-02T12:45:41.349Z,22.05
2023-12-02T12:48:08.556Z,15.05
2023-12-02T12:50:38.204Z,14.77
2023-12-02T12:53:12.736Z,15.02
2023-12-02T12:55:45.053Z,14.00
2023-12-02T12:58:16.441Z,14.32
2023-12-02T13:00:46.975Z,14.13
2023-12-02T13:03:46.367Z,14.27
2023-12-02T13:06:35.174Z,14.52
2023-12-02T13:09:10.125Z,16.15
2023-12-02T13:12:03.129Z,14.80
2023-12-02T13:14:38.384Z,13.52
2023-12-02T13:17:06.133Z,14.35
2023-12-02T13:19:35.795Z,13.43
2023-12-02T13:22:04.062Z,13.15
2023-12-02T13:24:37.000Z,12.73
2023-12-02T13:27:04.951Z,13.20
2023-12-02T13:29:31.918Z,11.65
2023-12-02T13:32:00.207Z,11.85
2023-12-02T13:34:32.704Z,10.82
2023-12-02T13:37:01.142Z,11.25
2023-12-02T13:39:31.275Z,11.15
2023-12-02T13:42:02.332Z,10.23
2023-12-02T13:44:31.704Z,10.50
2023-12-02T13:47:27.579Z,11.13
2023-12-02T13:49:59.319Z,11.30
2023-12-02T13:52:44.248Z,11.50
2023-12-02T13:55:30.958Z,10.07
2023-12-02T13:58:21.235Z,10.73
2023-12-02T14:00:47.941Z,13.65
2023-12-02T14:03:42.167Z,11.63
2023-12-02T14:06:24.990Z,11.18
2023-12-02T14:08:54.888Z,11.00
2023-12-02T14:11:56.654Z,10.73
2023-12-02T14:17:08.268Z,10.90
2023-12-02T14:20:11.558Z,10.20
2023-12-02T14:22:46.941Z,9.98
2023-12-02T14:25:34.804Z,11.07
2023-12-02T14:28:27.805Z,11.20
2023-12-02T14:31:23.483Z,11.13
2023-12-02T14:33:50.059Z,10.43
2023-12-02T14:36:35.259Z,11.18
2023-12-02T14:39:07.905Z,10.05
2023-12-02T14:41:48.550Z,11.00
2023-12-02T14:44:35.323Z,11.13
2023-12-02T14:47:12.494Z,11.35
2023-12-02T14:49:49.772Z,10.57
2023-12-02T14:52:20.659Z,11.02
2023-12-02T14:54:47.698Z,10.75
2023-12-02T14:57:15.563Z,11.10
2023-12-02T14:59:52.749Z,9.85
2023-12-02T15:02:38.970Z,9.73
2023-12-02T15:05:10.193Z,10.75
2023-12-02T15:07:43.088Z,11.00
2023-12-02T15:10:13.729Z,11.40
2023-12-02T15:12:49.123Z,10.63
2023-12-02T15:15:33.933Z,11.38
2023-12-02T15:18:02.346Z,11.57
2023-12-02T15:20:30.670Z,12.52
2023-12-02T15:23:32.500Z,11.10
2023-12-02T15:26:00.640Z,11.45
2023-12-02T15:28:27.179Z,10.68
2023-12-02T15:31:17.061Z,10.75
2023-12-02T15:33:44.170Z,11.38
2023-12-02T15:36:14.198Z,11.57
2023-12-02T15:38:41.626Z,10.55
2023-12-02T15:41:08.345Z,10.38
2023-12-02T15:43:35.349Z,12.00
2023-12-02T15:46:02.379Z,11.32
2023-12-02T15:48:29.316Z,11.60
2023-12-02T15:50:56.000Z,12.48
2023-12-02T15:53:24.485Z,10.90
2023-12-02T15:55:52.327Z,12.52
2023-12-02T15:58:19.007Z,12.52
2023-12-02T16:00:45.605Z,12.38
2023-12-02T16:03:12.332Z,13.07
2023-12-02T16:05:39.149Z,11.93
2023-12-02T16:08:08.881Z,12.82
2023-12-02T16:10:36.158Z,10.85
2023-12-02T16:13:03.307Z,14.18
2023-12-02T16:15:31.189Z,11.32
2023-12-02T16:18:01.400Z,13.48
2023-12-02T16:20:28.464Z,12.95
2023-12-02T16:22:55.309Z,12.63
2023-12-02T16:25:22.247Z,12.90
2023-12-02T16:27:49.640Z,12.77
2023-12-02T16:30:17.744Z,13.07
2023-12-02T16:32:45.878Z,12.48
2023-12-02T16:35:13.441Z,11.63
2023-12-02T16:37:40.992Z,11.13
2023-12-02T16:40:08.945Z,12.20
2023-12-02T16:42:36.788Z,13.73
2023-12-02T16:45:22.453Z,13.60
2023-12-02T16:47:52.177Z,12.70
2023-12-02T16:50:22.790Z,12.50
2023-12-02T16:52:59.238Z,13.32
2023-12-02T16:55:29.893Z,11.75
2023-12-02T16:57:57.716Z,12.68
2023-12-02T17:00:35.194Z,11.27
2023-12-02T17:03:01.793Z,12.30
2023-12-02T17:05:28.360Z,13.40
2023-12-02T17:08:24.277Z,13.32
2023-12-02T17:10:59.391Z,12.25
2023-12-02T17:13:26.605Z,12.38
2023-12-02T17:15:53.697Z,12.98
2023-12-02T17:18:35.355Z,13.18
2023-12-02T17:21:02.200Z,13.10
2023-12-02T17:23:33.183Z,12.70
2023-12-02T17:26:02.602Z,12.88
2023-12-02T17:28:29.257Z,12.15
2023-12-02T17:30:55.801Z,13.85
2023-12-02T17:33:23.694Z,12.88
2023-12-02T17:35:50.301Z,13.00
2023-12-02T17:38:16.913Z,12.18
2023-12-02T17:40:43.490Z,13.35
2023-12-02T17:43:10.078Z,12.32
2023-12-02T17:45:37.206Z,11.57
2023-12-02T17:48:04.448Z,12.10
2023-12-02T17:50:31.898Z,12.15
2023-12-02T17:52:58.759Z,13.65
2023-12-02T17:55:25.295Z,13.02
2023-12-02T17:57:52.775Z,14.48
2023-12-02T18:00:20.762Z,13.23
2023-12-02T18:02:48.740Z,13.25
2023-12-02T18:05:16.981Z,13.20
2023-12-02T18:07:44.762Z,13.43
2023-12-02T18:10:11.476Z,16.50
2023-12-02T18:12:38.104Z,13.60
2023-12-02T18:15:05.338Z,14.05
2023-12-02T18:17:31.886Z,14.52
2023-12-02T18:19:58.476Z,15.30
2023-12-02T18:22:25.081Z,15.13
2023-12-02T18:24:51.614Z,14.18
2023-12-02T18:27:22.670Z,14.07
2023-12-02T18:29:49.470Z,14.18
2023-12-02T18:32:16.003Z,14.18
2023-12-02T18:34:42.558Z,14.60
2023-12-02T18:37:09.091Z,15.00
2023-12-02T18:39:35.652Z,14.65
2023-12-02T18:42:02.750Z,14.32
2023-12-02T18:44:30.274Z,14.25
2023-12-02T18:46:56.984Z,16.23
2023-12-02T18:49:23.536Z,15.13
2023-12-02T18:51:50.045Z,14.60
2023-12-02T18:54:16.658Z,16.48
2023-12-02T18:56:43.284Z,15.43
2023-12-02T18:59:09.824Z,14.57
2023-12-02T19:01:36.561Z,16.20
2023-12-02T19:04:03.572Z,14.75
2023-12-02T19:06:30.884Z,15.48
2023-12-02T19:08:57.602Z,16.88
2023-12-02T19:11:24.098Z,17.63
2023-12-02T19:13:50.588Z,17.23
2023-12-02T19:16:17.131Z,15.75
2023-12-02T19:18:43.686Z,14.70
2023-12-02T19:21:11.286Z,16.45
2023-12-02T19:23:37.893Z,16.55
2023-12-02T19:26:04.849Z,16.60
2023-12-02T19:28:31.773Z,15.32
2023-12-02T19:30:58.365Z,17.40
2023-12-02T19:33:25.145Z,16.95
2023-12-02T19:35:51.735Z,17.58
2023-12-02T19:38:18.331Z,17.17
2023-12-02T19:40:44.977Z,17.42
2023-12-02T19:43:11.549Z,15.77
2023-12-02T19:45:38.410Z,17.58
2023-12-02T19:48:05.311Z,16.80
2023-12-02T19:50:31.862Z,17.83
2023-12-02T19:52:58.507Z,17.45
2023-12-02T19:55:25.025Z,17.05
2023-12-02T19:57:52.562Z,16.10
2023-12-02T20:00:19.285Z,16.92
2023-12-02T20:02:45.922Z,17.75
2023-12-02T20:05:13.531Z,16.52
2023-12-02T20:07:40.169Z,16.90
2023-12-02T20:10:07.754Z,17.67
2023-12-02T20:12:34.416Z,18.15
2023-12-02T20:15:01.084Z,16.88
2023-12-02T20:17:27.618Z,17.90
2023-12-02T20:19:54.131Z,16.23
2023-12-02T20:22:20.669Z,17.35
2023-12-02T20:24:47.242Z,18.65
2023-12-02T20:27:13.850Z,17.50
2023-12-02T20:29:40.429Z,18.35
2023-12-02T20:32:07.334Z,18.98
2023-12-02T20:34:34.774Z,17.02
2023-12-02T20:37:01.403Z,17.52
2023-12-02T20:39:28.310Z,16.30
2023-12-02T20:41:54.931Z,17.52
2023-12-02T20:44:21.598Z,16.95
2023-12-02T20:46:48.276Z,16.65
2023-12-02T20:49:17.140Z,19.38
2023-12-02T20:51:43.759Z,17.17
2023-12-02T20:54:10.392Z,16.85
2023-12-02T20:56:36.993Z,15.98
2023-12-02T20:59:03.567Z,17.05
2023-12-02T21:01:30.461Z,17.10
2023-12-02T21:03:57.183Z,17.15
2023-12-02T21:06:23.759Z,17.65
2023-12-02T21:08:50.508Z,16.83
2023-12-02T21:11:17.212Z,17.77
2023-12-02T21:13:45.363Z,16.05
2023-12-02T21:16:12.252Z,17.42
2023-12-02T21:18:38.907Z,15.05
2023-12-02T21:21:06.054Z,16.10
2023-12-02T21:23:32.599Z,16.10
2023-12-02T21:25:59.193Z,17.83
2023-12-02T21:28:26.547Z,16.58
2023-12-02T21:30:53.754Z,17.05
2023-12-02T21:33:20.627Z,16.70
2023-12-02T21:35:55.325Z,16.25
2023-12-02T21:38:34.022Z,15.38
2023-12-02T21:41:07.448Z,15.25
2023-12-02T21:43:34.016Z,17.13
2023-12-02T21:46:01.096Z,17.27
2023-12-02T21:48:42.315Z,16.02
2023-12-02T21:51:28.022Z,15.60
2023-12-02T21:53:58.766Z,15.18
2023-12-02T21:56:25.355Z,14.95
2023-12-02T21:59:11.245Z,15.18
2023-12-02T22:01:39.162Z,14.48
2023-12-02T22:04:11.478Z,13.93
2023-12-02T22:06:46.737Z,13.30
2023-12-02T22:09:28.499Z,13.73
2023-12-02T22:11:56.675Z,13.27
2023-12-02T22:14:25.959Z,13.95
2023-12-02T22:17:07.358Z,13.23
2023-12-02T22:19:35.123Z,13.50
2023-12-02T22:22:05.568Z,11.98
2023-12-02T22:24:38.346Z,11.43
2023-12-02T22:27:06.428Z,10.90
2023-12-02T22:29:33.529Z,12.70
2023-12-02T22:32:00.753Z,13.10
2023-12-02T22:34:27.452Z,12.07
2023-12-02T22:36:54.023Z,12.02
2023-12-02T22:39:22.610Z,12.07
2023-12-02T22:41:54.207Z,11.88
2023-12-02T22:44:21.869Z,11.43
2023-12-02T22:46:50.631Z,11.90
2023-12-02T22:49:23.621Z,10.02
2023-12-02T22:51:51.588Z,11.70
2023-12-02T22:54:30.031Z,10.18
2023-12-02T22:56:57.107Z,11.15
2023-12-02T22:59:24.886Z,9.35
2023-12-02T23:01:54.538Z,9.85
2023-12-02T23:04:37.572Z,10.20
2023-12-02T23:07:38.335Z,9.25
2023-12-02T23:10:22.749Z,9.63
2023-12-02T23:12:51.454Z,9.10
2023-12-02T23:15:37.963Z,9.60
2023-12-02T23:18:07.017Z,9.43
2023-12-02T23:20:35.055Z,9.13
2023-12-02T23:23:02.141Z,8.50
2023-12-02T23:25:29.596Z,9.75
2023-12-02T23:27:57.296Z,8.55
2023-12-02T23:30:24.092Z,8.23
2023-12-02T23:32:52.171Z,8.55
2023-12-02T23:35:21.665Z,9.00
2023-12-02T23:37:49.190Z,8.68
2023-12-02T23:40:28.315Z,8.77
2023-12-02T23:42:58.979Z,10.27
2023-12-02T23:45:26.131Z,10.48
2023-12-02T23:47:53.353Z,10.15
2023-12-02T23:50:20.695Z,9.35
2023-12-02T23:52:48.636Z,8.90
2023-12-02T23:55:15.898Z,9.10
2023-12-02T23:57:44.498Z,9.43
